Time;durP1;ratioP1;P1;durP2;ratioP2;P2;SDS_P1;SDS_P2;PMS_P1;PMS_P2;Temp;Humidity;BMP_temperature;BMP_pressure;BME280_temperature;BME280_humidity;BME280_pressure;Samples;Min_cycle;Max_cycle;Signal;HPM_P1;HPM_P2
2023/05/16 00:01:02;;;;;;;;;;;;;;;10.37;100.00;95286.44;10481058;28;1883;-76
2023/05/16 00:06:05;;;;;;;;;;;;;;;10.35;100.00;95272.47;10486697;28;2134;-75
2023/05/16 00:11:07;;;;;;;;;;;;;;;10.31;100.00;95276.81;10487832;28;1918;-75
2023/05/16 00:16:10;;;;;;;;;;;;;;;10.21;100.00;95278.50;10481900;28;1791;-76
2023/05/16 00:21:13;;;;;;;;;;;;;;;10.32;100.00;95276.56;10479136;28;2135;-74
2023/05/16 00:26:16;;;;;;;;;;;;;;;10.26;100.00;95275.78;10479560;28;2360;-74
2023/05/16 00:31:19;;;;;;;;;;;;;;;10.27;100.00;95265.84;10473809;28;1934;-75
2023/05/16 00:36:21;;;;;;;;;;;;;;;10.16;100.00;95267.78;10477278;28;2230;-74
2023/05/16 00:41:25;;;;;;;;;;;;;;;10.14;100.00;95264.59;10484383;28;1890;-74
2023/05/16 00:46:27;;;;;;;;;;;;;;;10.09;100.00;95270.00;10479897;28;1899;-75
2023/05/16 00:51:30;;;;;;;;;;;;;;;10.10;100.00;95262.75;10479769;28;1913;-78
2023/05/16 00:56:33;;;;;;;;;;;;;;;10.13;100.00;95265.69;10483764;28;1890;-75
2023/05/16 01:01:36;;;;;;;;;;;;;;;10.05;100.00;95268.97;10473698;28;1849;-74
2023/05/16 01:06:39;;;;;;;;;;;;;;;10.12;100.00;95268.66;10478326;28;1924;-73
2023/05/16 01:11:42;;;;;;;;;;;;;;;10.14;100.00;95271.84;10479834;28;2353;-73
2023/05/16 01:16:44;;;;;;;;;;;;;;;10.20;100.00;95271.53;10475686;28;1870;-76
2023/05/16 01:21:47;;;;;;;;;;;;;;;10.20;100.00;95263.47;10474736;28;2103;-75
2023/05/16 01:26:50;;;;;;;;;;;;;;;10.12;100.00;95255.22;10477306;28;1956;-75
2023/05/16 01:31:52;;;;;;;;;;;;;;;10.04;100.00;95251.25;10472182;28;2000;-78
2023/05/16 01:36:54;;;;;;;;;;;;;;;9.88;100.00;95258.66;10477598;28;1836;-75
2023/05/16 01:41:57;;;;;;;;;;;;;;;9.86;100.00;95252.78;10475335;28;4619;-76
2023/05/16 01:46:59;;;;;;;;;;;;;;;9.86;100.00;95254.63;10475187;28;1936;-74
2023/05/16 01:52:02;;;;;;;;;;;;;;;9.80;100.00;95245.00;10479615;28;2083;-74
2023/05/16 01:57:07;;;;;;;;;;;;;;;9.81;100.00;95238.59;10484134;28;1874;-75
2023/05/16 02:02:09;;;;;;;;;;;;;;;9.78;100.00;95241.81;10475512;28;1944;-75
2023/05/16 02:07:13;;;;;;;;;;;;;;;9.78;100.00;95247.19;10476054;28;2057;-76
2023/05/16 02:12:16;;;;;;;;;;;;;;;9.77;100.00;95249.06;10493275;28;2040;-76
2023/05/16 02:17:18;;;;;;;;;;;;;;;9.72;100.00;95260.63;10486206;28;2033;-76
2023/05/16 02:22:21;;;;;;;;;;;;;;;9.72;100.00;95260.63;10488990;28;1881;-75
2023/05/16 02:27:23;;;;;;;;;;;;;;;9.70;100.00;95257.44;10486830;28;1852;-75
2023/05/16 02:32:26;;;;;;;;;;;;;;;9.67;100.00;95255.34;10483103;28;1909;-74
2023/05/16 02:37:28;;;;;;;;;;;;;;;9.72;100.00;95265.22;10483097;28;1975;-72
2023/05/16 02:42:30;;;;;;;;;;;;;;;9.78;100.00;95257.91;10480645;28;4480;-78
2023/05/16 02:47:33;;;;;;;;;;;;;;;9.81;100.00;95249.31;10487311;28;2105;-75
2023/05/16 02:52:35;;;;;;;;;;;;;;;9.83;100.00;95250.63;10490564;28;1951;-76
2023/05/16 02:57:37;;;;;;;;;;;;;;;9.82;100.00;95249.03;10489192;28;1987;-76
2023/05/16 03:02:40;;;;;;;;;;;;;;;9.84;100.00;95251.44;10481274;28;1963;-79
2023/05/16 03:07:42;;;;;;;;;;;;;;;9.84;100.00;95246.88;10478448;28;1968;-76
2023/05/16 03:12:45;;;;;;;;;;;;;;;9.73;100.00;95248.84;10482484;28;2190;-76
2023/05/16 03:17:47;;;;;;;;;;;;;;;9.67;100.00;95257.19;10495658;28;1969;-74
2023/05/16 03:22:50;;;;;;;;;;;;;;;9.65;100.00;95254.00;10495786;28;1959;-78
2023/05/16 03:27:52;;;;;;;;;;;;;;;9.74;100.00;95252.34;10486260;28;1928;-77
2023/05/16 03:32:55;;;;;;;;;;;;;;;9.64;100.00;95247.03;10507527;28;1922;-76
2023/05/16 03:37:58;;;;;;;;;;;;;;;9.61;100.00;95252.97;10488977;28;1920;-76
2023/05/16 03:43:00;;;;;;;;;;;;;;;9.66;100.00;95251.03;10484372;28;4465;-73
2023/05/16 03:48:02;;;;;;;;;;;;;;;9.67;100.00;95247.28;10483924;28;1976;-73
2023/05/16 03:53:05;;;;;;;;;;;;;;;9.63;100.00;95240.88;10483752;28;1981;-75
2023/05/16 03:58:07;;;;;;;;;;;;;;;9.59;100.00;95245.19;10484240;28;1921;-77
2023/05/16 04:03:10;;;;;;;;;;;;;;;9.59;100.00;95244.38;10488269;28;1887;-76
2023/05/16 04:08:12;;;;;;;;;;;;;;;9.60;100.00;95245.97;10483864;28;2142;-76
2023/05/16 04:13:15;;;;;;;;;;;;;;;9.66;100.00;95251.03;10483343;28;2300;-76
2023/05/16 04:18:17;;;;;;;;;;;;;;;9.67;100.00;95247.28;10487824;28;1948;-77
2023/05/16 04:23:19;;;;;;;;;;;;;;;9.59;100.00;95252.44;10480787;28;2066;-73
2023/05/16 04:28:22;;;;;;;;;;;;;;;9.71;100.00;95253.69;10481660;28;2023;-75
2023/05/16 04:33:24;;;;;;;;;;;;;;;9.73;100.00;95248.03;10476847;28;1981;-74
2023/05/16 04:38:26;;;;;;;;;;;;;;;9.73;100.00;95256.06;10480007;28;1927;-72
2023/05/16 04:43:29;;;;;;;;;;;;;;;9.82;100.00;95261.66;10479022;28;4410;-73
2023/05/16 04:48:31;;;;;;;;;;;;;;;9.99;100.00;95254.81;10482327;28;1968;-73
2023/05/16 04:53:33;;;;;;;;;;;;;;;10.17;100.00;95239.84;10484166;28;1926;-73
2023/05/16 04:58:36;;;;;;;;;;;;;;;10.25;100.00;95241.97;10481276;28;1889;-76
2023/05/16 05:03:38;;;;;;;;;;;;;;;10.40;100.00;95241.00;10476754;28;2024;-73
2023/05/16 05:08:41;;;;;;;;;;;;;;;10.43;100.00;95236.94;10477992;28;1962;-74
2023/05/16 05:13:44;;;;;;;;;;;;;;;10.63;100.00;95252.84;10472942;28;1976;-74
2023/05/16 05:18:46;;;;;;;;;;;;;;;10.52;100.00;95245.97;10475607;28;1920;-73
2023/05/16 05:23:49;;;;;;;;;;;;;;;10.51;100.00;95247.06;10481660;28;1818;-72
2023/05/16 05:28:52;;;;;;;;;;;;;;;10.58;100.00;95246.72;10463365;28;1976;-71
2023/05/16 05:34:07;;;;;;;;;;;;;;;10.57;100.00;95234.38;10478586;28;1918;-72
2023/05/16 05:39:09;;;;;;;;;;;;;;;10.33;100.00;95245.13;10483214;28;1984;-69
2023/05/16 05:44:11;;;;;;;;;;;;;;;10.31;100.00;95242.72;10473862;28;4727;-70
2023/05/16 05:49:14;;;;;;;;;;;;;;;10.17;100.00;95242.53;10484322;28;1912;-70
2023/05/16 05:54:17;;;;;;;;;;;;;;;10.16;100.00;95248.19;10469532;28;1941;-71
2023/05/16 05:59:19;;;;;;;;;;;;;;;10.26;100.00;95243.56;10471322;28;1997;-72
2023/05/16 06:04:22;;;;;;;;;;;;;;;10.48;100.00;95239.56;10471839;28;1920;-74
2023/05/16 06:09:24;;;;;;;;;;;;;;;10.68;100.00;95231.25;10474536;28;1974;-73
2023/05/16 06:14:26;;;;;;;;;;;;;;;10.77;100.00;95231.44;10471323;28;1980;-75
2023/05/16 06:19:29;;;;;;;;;;;;;;;11.02;100.00;95233.81;10473881;28;1856;-71
2023/05/16 06:24:32;;;;;;;;;;;;;;;11.33;100.00;95223.44;10472906;28;2036;-70
2023/05/16 06:29:34;;;;;;;;;;;;;;;11.46;100.00;95221.91;10469427;28;1850;-71
2023/05/16 06:34:37;;;;;;;;;;;;;;;11.77;100.00;95226.78;10468381;28;1977;-73
2023/05/16 06:39:39;;;;;;;;;;;;;;;11.99;100.00;95218.91;10472433;28;1968;-72
2023/05/16 06:44:42;;;;;;;;;;;;;;;11.77;100.00;95229.47;10470641;28;1832;-70
2023/05/16 06:49:44;;;;;;;;;;;;;;;12.28;100.00;95237.56;10470303;28;1901;-74
2023/05/16 06:54:47;;;;;;;;;;;;;;;12.53;100.00;95232.75;10471925;28;2037;-72
2023/05/16 06:59:50;;;;;;;;;;;;;;;12.16;100.00;95240.72;10476807;28;1863;-74
2023/05/16 07:04:52;;;;;;;;;;;;;;;12.11;100.00;95226.53;10476784;28;1870;-73
2023/05/16 07:09:54;;;;;;;;;;;;;;;11.88;100.00;95229.06;10478667;28;1901;-73
2023/05/16 07:14:57;;;;;;;;;;;;;;;12.27;100.00;95225.16;10481749;28;1985;-73
2023/05/16 07:19:59;;;;;;;;;;;;;;;12.24;100.00;95224.97;10477070;28;1953;-70
2023/05/16 07:25:11;;;;;;;;;;;;;;;12.37;100.00;95221.47;10482150;28;1940;-74
2023/05/16 07:30:13;;;;;;;;;;;;;;;12.00;100.00;95223.19;10475673;28;1870;-74
2023/05/16 07:35:16;;;;;;;;;;;;;;;11.80;100.00;95221.63;10476033;28;1914;-72
2023/05/16 07:40:20;;;;;;;;;;;;;;;11.29;100.00;95254.69;10479779;28;4461;-74
2023/05/16 07:45:22;;;;;;;;;;;;;;;10.96;100.00;95263.75;10475931;28;2017;-74
2023/05/16 07:50:24;;;;;;;;;;;;;;;10.82;100.00;95283.28;10476047;28;1885;-72
2023/05/16 07:55:27;;;;;;;;;;;;;;;10.56;100.00;95300.78;10472594;28;1977;-72
2023/05/16 08:00:30;;;;;;;;;;;;;;;10.37;100.00;95298.00;10473463;28;1855;-73
2023/05/16 08:05:33;;;;;;;;;;;;;;;10.27;100.00;95304.25;10477208;28;1817;-72
2023/05/16 08:10:36;;;;;;;;;;;;;;;10.29;100.00;95312.81;10477329;28;1973;-72
2023/05/16 08:15:38;;;;;;;;;;;;;;;10.51;100.00;95325.81;10469236;28;1926;-73
2023/05/16 08:20:41;;;;;;;;;;;;;;;10.65;100.00;95312.50;10472703;28;1882;-72
2023/05/16 08:25:44;;;;;;;;;;;;;;;10.53;100.00;95315.56;10474554;28;1881;-75
2023/05/16 08:30:46;;;;;;;;;;;;;;;10.67;100.00;95314.88;10472112;28;1873;-75
2023/05/16 08:35:51;;;;;;;;;;;;;;;10.78;100.00;95314.50;10470288;28;1989;-72
2023/05/16 08:40:54;;;;;;;;;;;;;;;10.86;100.00;95314.94;10465927;28;4442;-73
2023/05/16 08:45:56;;;;;;;;;;;;;;;10.98;100.00;95307.28;10472357;28;1762;-73
2023/05/16 08:50:59;;;;;;;;;;;;;;;11.32;100.00;95307.94;10467980;28;2250;-72
2023/05/16 08:56:01;;;;;;;;;;;;;;;11.74;100.00;95311.66;10468812;28;1980;-72
2023/05/16 09:01:07;;;;;;;;;;;;;;;12.22;100.00;95297.22;10474236;28;2033;-72
2023/05/16 09:06:10;;;;;;;;;;;;;;;12.36;100.00;95287.28;10471476;28;1888;-72
2023/05/16 09:11:13;;;;;;;;;;;;;;;12.21;100.00;95288.31;10472897;28;2032;-76
2023/05/16 09:16:15;;;;;;;;;;;;;;;12.37;100.00;95289.66;10467043;28;2286;-72
2023/05/16 09:21:18;;;;;;;;;;;;;;;11.86;100.00;95277.03;10469574;28;1934;-72
2023/05/16 09:26:21;;;;;;;;;;;;;;;12.34;100.00;95282.19;10476538;28;1928;-73
2023/05/16 09:31:25;;;;;;;;;;;;;;;12.55;100.00;95271.03;10473619;28;1909;-72
2023/05/16 09:36:28;;;;;;;;;;;;;;;12.87;100.00;95289.81;10471647;28;1814;-72
2023/05/16 09:41:30;;;;;;;;;;;;;;;12.18;100.00;95281.63;10473845;28;4440;-73
2023/05/16 09:46:32;;;;;;;;;;;;;;;12.01;100.00;95283.25;10472820;28;1968;-72
2023/05/16 09:51:35;;;;;;;;;;;;;;;11.84;100.00;95292.69;10467535;28;1977;-73
2023/05/16 09:56:38;;;;;;;;;;;;;;;12.09;100.00;95288.00;10471687;28;1981;-71
2023/05/16 10:01:40;;;;;;;;;;;;;;;12.67;100.00;95284.81;10472441;28;1902;-73
2023/05/16 10:06:43;;;;;;;;;;;;;;;12.88;100.00;95280.63;10470098;28;1979;-69
2023/05/16 10:11:45;;;;;;;;;;;;;;;13.15;100.00;95279.00;10471757;28;1910;-70
2023/05/16 10:16:48;;;;;;;;;;;;;;;13.65;100.00;95279.06;10470408;28;2007;-70
2023/05/16 10:21:51;;;;;;;;;;;;;;;13.15;100.00;95289.81;10468901;28;1946;-72
2023/05/16 10:26:53;;;;;;;;;;;;;;;12.52;100.00;95290.47;10471642;28;1943;-72
2023/05/16 10:31:56;;;;;;;;;;;;;;;12.05;100.00;95305.84;10472068;28;1934;-72
2023/05/16 10:36:58;;;;;;;;;;;;;;;11.78;100.00;95312.69;10480171;28;1822;-72
2023/05/16 10:42:01;;;;;;;;;;;;;;;11.54;100.00;95323.50;10472991;28;4625;-72
2023/05/16 10:47:04;;;;;;;;;;;;;;;11.23;100.00;95315.03;10478938;28;1830;-74
2023/05/16 10:52:06;;;;;;;;;;;;;;;10.65;100.00;95334.00;10480309;28;1913;-72
2023/05/16 10:57:09;;;;;;;;;;;;;;;10.69;100.00;95337.72;10480158;28;1817;-72
2023/05/16 11:02:11;;;;;;;;;;;;;;;10.63;100.00;95335.38;10474544;28;2122;-75
2023/05/16 11:07:14;;;;;;;;;;;;;;;10.70;100.00;95339.31;10482365;28;1815;-74
2023/05/16 11:12:16;;;;;;;;;;;;;;;10.60;100.00;95338.63;10476477;28;1977;-72
2023/05/16 11:17:19;;;;;;;;;;;;;;;10.56;100.00;95338.41;10479065;28;2548;-73
2023/05/16 11:22:22;;;;;;;;;;;;;;;10.57;100.00;95334.63;10477724;28;1916;-72
2023/05/16 11:27:24;;;;;;;;;;;;;;;10.11;100.00;95342.22;10481492;28;2165;-72
2023/05/16 11:32:27;;;;;;;;;;;;;;;10.20;100.00;95333.31;10474988;28;2052;-71
2023/05/16 11:37:29;;;;;;;;;;;;;;;10.66;100.00;95326.72;10474204;28;2060;-72
2023/05/16 11:42:32;;;;;;;;;;;;;;;10.89;100.00;95320.56;10475835;28;4589;-73
2023/05/16 11:47:35;;;;;;;;;;;;;;;11.70;100.00;95334.84;10477370;28;1885;-72
2023/05/16 11:52:38;;;;;;;;;;;;;;;12.81;100.00;95331.47;10476493;28;1999;-72
2023/05/16 11:57:42;;;;;;;;;;;;;;;13.65;100.00;95322.25;10483024;28;1936;-71
2023/05/16 12:02:46;;;;;;;;;;;;;;;14.32;100.00;95298.00;10483008;28;1775;-73
2023/05/16 12:07:49;;;;;;;;;;;;;;;14.45;100.00;95283.59;10476889;28;1862;-72
2023/05/16 12:12:52;;;;;;;;;;;;;;;14.22;100.00;95282.03;10474389;28;1925;-73
2023/05/16 12:17:55;;;;;;;;;;;;;;;14.07;100.00;95284.00;10483314;28;1881;-73
2023/05/16 12:22:58;;;;;;;;;;;;;;;13.83;100.00;95291.59;10478858;28;1835;-74
2023/05/16 12:28:00;;;;;;;;;;;;;;;13.94;100.00;95276.75;10481869;28;1826;-72
2023/05/16 12:33:03;;;;;;;;;;;;;;;13.54;100.00;95273.06;10472782;28;2079;-71
2023/05/16 12:38:09;;;;;;;;;;;;;;;13.82;100.00;95275.69;10475735;28;1846;-72
2023/05/16 12:43:11;;;;;;;;;;;;;;;14.20;100.00;95273.44;10474927;28;4426;-69
2023/05/16 12:48:14;;;;;;;;;;;;;;;13.61;100.00;95283.44;10469290;28;1838;-69
2023/05/16 12:53:16;;;;;;;;;;;;;;;13.35;100.00;95289.41;10472802;28;1914;-68
2023/05/16 12:58:19;;;;;;;;;;;;;;;13.55;100.00;95285.50;10472379;28;1845;-69
2023/05/16 13:03:22;;;;;;;;;;;;;;;13.63;100.00;95281.25;10471428;28;1826;-69
2023/05/16 13:08:24;;;;;;;;;;;;;;;13.92;100.00;95272.75;10473632;28;1870;-68
2023/05/16 13:13:27;;;;;;;;;;;;;;;13.76;100.00;95270.41;10467960;28;1910;-69
2023/05/16 13:18:37;;;;;;;;;;;;;;;14.00;100.00;95286.34;10475664;28;2066;-67
2023/05/16 13:23:40;;;;;;;;;;;;;;;13.55;100.00;95281.97;10477581;28;2122;-70
2023/05/16 13:28:42;;;;;;;;;;;;;;;13.16;100.00;95291.41;10472059;28;2158;-70
2023/05/16 13:33:45;;;;;;;;;;;;;;;11.24;100.00;95295.13;10474072;28;1942;-73
2023/05/16 13:38:48;;;;;;;;;;;;;;;10.54;100.00;95340.53;10477991;28;1877;-72
2023/05/16 13:43:50;;;;;;;;;;;;;;;10.31;100.00;95338.59;10472958;28;4520;-72
2023/05/16 13:48:52;;;;;;;;;;;;;;;10.08;100.00;95351.66;10481144;28;1781;-74
2023/05/16 13:53:55;;;;;;;;;;;;;;;9.99;100.00;95338.03;10481575;28;1906;-74
2023/05/16 13:58:58;;;;;;;;;;;;;;;9.85;100.00;95333.56;10468286;28;2105;-72
2023/05/16 14:04:08;;;;;;;;;;;;;;;9.74;100.00;95341.69;10468764;28;1901;-73
2023/05/16 14:09:12;;;;;;;;;;;;;;;9.56;100.00;95345.03;10480813;28;1868;-74
2023/05/16 14:14:14;;;;;;;;;;;;;;;9.49;100.00;95347.22;10480154;28;1918;-74
2023/05/16 14:19:17;;;;;;;;;;;;;;;9.41;100.00;95355.81;10480021;28;1806;-74
2023/05/16 14:24:21;;;;;;;;;;;;;;;9.31;100.00;95351.34;10481154;28;1873;-74
2023/05/16 14:29:24;;;;;;;;;;;;;;;9.38;100.00;95353.72;10478783;28;2212;-74
2023/05/16 14:34:26;;;;;;;;;;;;;;;9.41;100.00;95356.63;10476028;28;1994;-73
2023/05/16 14:39:28;;;;;;;;;;;;;;;9.40;100.00;95365.75;10481302;28;4528;-73
2023/05/16 14:44:31;;;;;;;;;;;;;;;9.36;100.00;95374.66;10483663;28;1854;-73
2023/05/16 14:49:33;;;;;;;;;;;;;;;9.51;100.00;95381.81;10488474;28;1977;-72
2023/05/16 14:54:36;;;;;;;;;;;;;;;9.67;100.00;95381.47;10485581;28;2036;-74
2023/05/16 14:59:39;;;;;;;;;;;;;;;9.57;100.00;95384.19;10486254;28;1854;-73
2023/05/16 15:04:41;;;;;;;;;;;;;;;9.72;100.00;95397.53;10474100;28;2127;-73
2023/05/16 15:09:43;;;;;;;;;;;;;;;9.65;100.00;95396.22;10480248;28;1883;-72
2023/05/16 15:14:46;;;;;;;;;;;;;;;9.69;100.00;95408.03;10475785;28;1918;-72
2023/05/16 15:19:48;;;;;;;;;;;;;;;9.73;100.00;95407.22;10474149;28;1841;-70
2023/05/16 15:24:51;;;;;;;;;;;;;;;9.54;100.00;95408.88;10476250;28;2148;-70
2023/05/16 15:29:53;;;;;;;;;;;;;;;9.59;100.00;95410.75;10475841;28;1925;-71
2023/05/16 15:34:56;;;;;;;;;;;;;;;9.69;100.00;95411.50;10476858;28;1906;-70
2023/05/16 15:39:58;;;;;;;;;;;;;;;9.58;100.00;95415.31;10474347;28;4465;-70
2023/05/16 15:45:00;;;;;;;;;;;;;;;9.54;100.00;95422.31;10475200;28;1880;-70
2023/05/16 15:50:03;;;;;;;;;;;;;;;9.52;100.00;95421.78;10471285;28;2098;-70
2023/05/16 15:55:05;;;;;;;;;;;;;;;9.60;100.00;95426.56;10470223;28;2047;-70
2023/05/16 16:00:07;;;;;;;;;;;;;;;9.55;100.00;95425.81;10468857;28;1846;-68
2023/05/16 16:05:10;;;;;;;;;;;;;;;9.66;100.00;95417.41;10465561;28;2139;-77
2023/05/16 16:10:12;;;;;;;;;;;;;;;9.98;100.00;95419.66;10472736;28;1900;-71
2023/05/16 16:15:15;;;;;;;;;;;;;;;9.86;100.00;95426.44;10466340;28;2035;-72
2023/05/16 16:20:17;;;;;;;;;;;;;;;9.78;100.00;95429.72;10473343;28;2105;-70
2023/05/16 16:25:20;;;;;;;;;;;;;;;9.74;100.00;95430.28;10471904;28;1904;-70
2023/05/16 16:30:22;;;;;;;;;;;;;;;9.70;100.00;95433.78;10468568;28;1901;-73
2023/05/16 16:35:25;;;;;;;;;;;;;;;9.65;100.00;95434.59;10469455;28;1913;-71
2023/05/16 16:40:27;;;;;;;;;;;;;;;9.79;100.00;95444.72;10476921;28;4437;-74
2023/05/16 16:45:30;;;;;;;;;;;;;;;9.83;100.00;95448.47;10476324;28;1886;-72
2023/05/16 16:50:33;;;;;;;;;;;;;;;9.80;100.00;95446.34;10478575;28;1865;-74
2023/05/16 16:55:36;;;;;;;;;;;;;;;9.62;100.00;95464.69;10473699;28;1921;-71
2023/05/16 17:00:42;;;;;;;;;;;;;;;9.72;100.00;95459.25;10478696;28;1893;-75
2023/05/16 17:05:44;;;;;;;;;;;;;;;9.82;100.00;95468.34;10473583;28;1950;-69
2023/05/16 17:10:47;;;;;;;;;;;;;;;9.72;100.00;95475.34;10481824;28;1853;-70
2023/05/16 17:15:49;;;;;;;;;;;;;;;9.78;100.00;95483.41;10480058;28;1914;-70
2023/05/16 17:20:52;;;;;;;;;;;;;;;9.79;100.00;95479.63;10485048;28;1953;-71
2023/05/16 17:25:55;;;;;;;;;;;;;;;9.84;100.00;95482.28;10479516;28;1878;-72
2023/05/16 17:30:57;;;;;;;;;;;;;;;9.74;100.00;95478.59;10477526;28;1873;-72
2023/05/16 17:36:00;;;;;;;;;;;;;;;9.82;100.00;95479.09;10473557;28;2149;-73
2023/05/16 17:41:03;;;;;;;;;;;;;;;9.83;100.00;95476.13;10474707;28;4343;-72
2023/05/16 17:46:06;;;;;;;;;;;;;;;9.78;100.00;95476.16;10469262;28;2130;-73
2023/05/16 17:51:09;;;;;;;;;;;;;;;9.79;100.00;95483.13;10477663;28;1885;-71
2023/05/16 17:56:13;;;;;;;;;;;;;;;9.85;100.00;95479.31;10475424;28;1977;-72
2023/05/16 18:01:16;;;;;;;;;;;;;;;9.81;100.00;95490.91;10473158;28;1910;-73
2023/05/16 18:06:19;;;;;;;;;;;;;;;9.85;100.00;95490.06;10473776;28;1974;-76
2023/05/16 18:11:22;;;;;;;;;;;;;;;9.97;100.00;95497.81;10475605;28;2079;-72
2023/05/16 18:16:24;;;;;;;;;;;;;;;9.82;100.00;95497.88;10474499;28;1918;-74
2023/05/16 18:21:27;;;;;;;;;;;;;;;9.76;100.00;95502.47;10501245;28;1874;-70
2023/05/16 18:26:30;;;;;;;;;;;;;;;9.73;100.00;95503.84;10471460;28;1917;-72
2023/05/16 18:31:32;;;;;;;;;;;;;;;9.68;100.00;95508.41;10473594;28;1873;-72
2023/05/16 18:36:35;;;;;;;;;;;;;;;9.58;100.00;95519.97;10473195;28;2084;-78
2023/05/16 18:41:38;;;;;;;;;;;;;;;9.56;100.00;95524.81;10473827;28;4514;-73
2023/05/16 18:46:40;;;;;;;;;;;;;;;9.68;100.00;95538.75;10469950;28;2012;-72
2023/05/16 18:51:43;;;;;;;;;;;;;;;9.36;100.00;95546.34;10472924;28;1956;-72
2023/05/16 18:56:46;;;;;;;;;;;;;;;9.13;100.00;95561.09;10476577;28;1996;-73
2023/05/16 19:01:48;;;;;;;;;;;;;;;8.99;100.00;95554.69;10481396;28;1969;-72
2023/05/16 19:06:53;;;;;;;;;;;;;;;8.90;100.00;95565.91;10477047;28;2028;-71
2023/05/16 19:11:56;;;;;;;;;;;;;;;8.81;100.00;95572.09;10479153;28;1941;-71
2023/05/16 19:16:58;;;;;;;;;;;;;;;8.71;100.00;95578.22;10476265;28;1937;-73
2023/05/16 19:22:01;;;;;;;;;;;;;;;8.68;100.00;95584.13;10480380;28;1854;-76
2023/05/16 19:27:03;;;;;;;;;;;;;;;8.62;100.00;95583.31;10482505;28;2002;-71
2023/05/16 19:32:06;;;;;;;;;;;;;;;8.60;100.00;95593.50;10473487;28;1856;-72
2023/05/16 19:37:09;;;;;;;;;;;;;;;8.60;100.00;95606.91;10472824;28;1914;-71
2023/05/16 19:42:11;;;;;;;;;;;;;;;8.57;100.00;95609.28;10478948;28;4553;-71
2023/05/16 19:47:13;;;;;;;;;;;;;;;8.56;100.00;95613.03;10480121;28;1897;-72
2023/05/16 19:52:16;;;;;;;;;;;;;;;8.49;100.00;95617.84;10479021;28;1810;-71
2023/05/16 19:57:18;;;;;;;;;;;;;;;8.47;100.00;95620.00;10473814;28;1914;-73
2023/05/16 20:02:20;;;;;;;;;;;;;;;8.35;100.00;95626.38;10471572;28;1981;-70
2023/05/16 20:07:26;;;;;;;;;;;;;;;8.34;100.00;95635.47;10472669;28;1943;-71
2023/05/16 20:12:28;;;;;;;;;;;;;;;8.32;100.00;95628.75;10478334;28;1827;-73
2023/05/16 20:17:31;;;;;;;;;;;;;;;8.29;100.00;95637.31;10477877;28;2331;-71
2023/05/16 20:22:37;;;;;;;;;;;;;;;8.22;100.00;95642.91;10477128;28;1945;-71
2023/05/16 20:27:39;;;;;;;;;;;;;;;8.09;100.00;95652.22;10477493;28;1842;-72
2023/05/16 20:32:42;;;;;;;;;;;;;;;8.05;100.00;95651.13;10480248;28;1897;-72
2023/05/16 20:37:44;;;;;;;;;;;;;;;8.02;100.00;95645.50;10477610;28;1979;-71
2023/05/16 20:42:47;;;;;;;;;;;;;;;7.97;100.00;95659.66;10476578;28;4461;-71
2023/05/16 20:47:50;;;;;;;;;;;;;;;7.91;100.00;95666.03;10482279;28;1806;-70
2023/05/16 20:52:53;;;;;;;;;;;;;;;7.97;100.00;95665.00;10479191;28;1777;-71
2023/05/16 20:57:56;;;;;;;;;;;;;;;7.94;100.00;95660.16;10479603;28;1973;-70
2023/05/16 21:02:58;;;;;;;;;;;;;;;7.90;100.00;95669.78;10472056;28;2000;-72
2023/05/16 21:08:01;;;;;;;;;;;;;;;7.95;100.00;95671.66;10476562;28;1865;-75
2023/05/16 21:13:04;;;;;;;;;;;;;;;7.88;100.00;95666.53;10470286;28;1874;-72
2023/05/16 21:18:06;;;;;;;;;;;;;;;7.86;100.00;95674.03;10472168;28;1918;-73
2023/05/16 21:23:10;;;;;;;;;;;;;;;7.86;100.00;95674.84;10464359;28;2082;-70
2023/05/16 21:28:12;;;;;;;;;;;;;;;7.83;100.00;95666.53;10475577;28;1829;-72
2023/05/16 21:33:15;;;;;;;;;;;;;;;7.82;100.00;95673.75;10477151;28;1770;-70
2023/05/16 21:38:17;;;;;;;;;;;;;;;7.81;100.00;95692.72;10472335;28;1910;-70
2023/05/16 21:43:20;;;;;;;;;;;;;;;7.81;100.00;95695.41;10477986;28;4454;-71
2023/05/16 21:48:22;;;;;;;;;;;;;;;7.77;100.00;95702.34;10477422;28;1838;-72
2023/05/16 21:53:25;;;;;;;;;;;;;;;7.72;100.00;95697.78;10474431;28;1814;-73
2023/05/16 21:58:28;;;;;;;;;;;;;;;7.71;100.00;95706.06;10476257;28;2003;-71
2023/05/16 22:03:30;;;;;;;;;;;;;;;7.72;100.00;95705.00;10475579;28;1898;-71
2023/05/16 22:08:33;;;;;;;;;;;;;;;7.62;100.00;95704.91;10480371;28;1980;-70
2023/05/16 22:13:35;;;;;;;;;;;;;;;7.63;100.00;95717.22;10473057;28;1940;-70
2023/05/16 22:18:38;;;;;;;;;;;;;;;7.68;100.00;95728.75;10476854;28;1902;-72
2023/05/16 22:23:40;;;;;;;;;;;;;;;7.61;100.00;95736.22;10483795;28;1742;-72
2023/05/16 22:28:42;;;;;;;;;;;;;;;7.67;100.00;95718.31;10475218;28;1912;-70
2023/05/16 22:33:45;;;;;;;;;;;;;;;7.69;100.00;95721.53;10482264;28;1885;-71
2023/05/16 22:38:48;;;;;;;;;;;;;;;7.56;100.00;95728.94;10484459;28;1963;-71
2023/05/16 22:43:50;;;;;;;;;;;;;;;7.57;100.00;95727.91;10480569;28;4524;-72
2023/05/16 22:48:52;;;;;;;;;;;;;;;7.49;100.00;95724.88;10481818;28;1869;-71
2023/05/16 22:53:55;;;;;;;;;;;;;;;7.47;100.00;95725.13;10480738;28;2517;-70
2023/05/16 22:58:57;;;;;;;;;;;;;;;7.48;100.00;95724.06;10486787;28;1982;-70
2023/05/16 23:04:00;;;;;;;;;;;;;;;7.41;100.00;95726.16;10477647;28;1904;-72
2023/05/16 23:09:03;;;;;;;;;;;;;;;7.35;100.00;95735.19;10480430;28;1850;-71
2023/05/16 23:14:06;;;;;;;;;;;;;;;7.36;100.00;95739.47;10473572;28;1917;-71
2023/05/16 23:19:08;;;;;;;;;;;;;;;7.30;100.00;95730.59;10481365;28;1976;-74
2023/05/16 23:24:11;;;;;;;;;;;;;;;7.25;100.00;95738.59;10483628;28;1921;-72
2023/05/16 23:29:14;;;;;;;;;;;;;;;7.25;100.00;95738.59;10477490;28;1838;-71
2023/05/16 23:34:16;;;;;;;;;;;;;;;7.20;100.00;95746.56;10473234;28;1870;-71
2023/05/16 23:39:20;;;;;;;;;;;;;;;7.21;100.00;95748.16;10479567;28;1910;-71
2023/05/16 23:44:23;;;;;;;;;;;;;;;7.27;100.00;95747.16;10479459;28;4678;-77
2023/05/16 23:49:25;;;;;;;;;;;;;;;7.24;100.00;95752.19;10473603;28;2024;-71
2023/05/16 23:54:28;;;;;;;;;;;;;;;7.17;100.00;95755.06;10481357;28;1916;-73
2023/05/16 23:59:31;;;;;;;;;;;;;;;7.19;100.00;95755.63;10480443;28;1941;-70
